sensor_id;sensor_type;location;lat;lon;timestamp;pressure;altitude;pressure_sealevel;temperature;humidity
31538;BME280;18147;51.952;6.146;2022-12-07T00:00:27;101695.25;;;3.64;100.00
31538;BME280;18147;51.952;6.146;2022-12-07T00:02:52;101688.06;;;3.71;100.00
31538;BME280;18147;51.952;6.146;2022-12-07T00:05:18;101687.19;;;3.72;100.00
31538;BME280;18147;51.952;6.146;2022-12-07T00:07:43;101678.19;;;3.80;100.00
31538;BME280;18147;51.952;6.146;2022-12-07T00:10:09;101674.72;;;3.78;100.00
31538;BME280;18147;51.952;6.146;2022-12-07T00:12:34;101674.69;;;3.80;100.00
31538;BME280;18147;51.952;6.146;2022-12-07T00:14:59;101674.59;;;3.84;100.00
31538;BME280;18147;51.952;6.146;2022-12-07T00:17:25;101676.50;;;3.78;100.00
31538;BME280;18147;51.952;6.146;2022-12-07T00:19:51;101680.06;;;3.77;100.00
31538;BME280;18147;51.952;6.146;2022-12-07T00:22:17;101670.56;;;3.68;100.00
31538;BME280;18147;51.952;6.146;2022-12-07T00:24:42;101665.41;;;3.62;100.00
31538;BME280;18147;51.952;6.146;2022-12-07T00:27:08;101656.66;;;3.61;100.00
31538;BME280;18147;51.952;6.146;2022-12-07T00:29:33;101655.94;;;3.53;100.00
31538;BME280;18147;51.952;6.146;2022-12-07T00:31:58;101654.22;;;3.51;100.00
31538;BME280;18147;51.952;6.146;2022-12-07T00:34:24;101658.78;;;3.43;100.00
31538;BME280;18147;51.952;6.146;2022-12-07T00:36:50;101658.94;;;3.36;100.00
31538;BME280;18147;51.952;6.146;2022-12-07T00:39:15;101665.16;;;3.32;100.00
31538;BME280;18147;51.952;6.146;2022-12-07T00:41:41;101660.88;;;3.25;100.00
31538;BME280;18147;51.952;6.146;2022-12-07T00:44:07;101664.47;;;3.21;100.00
31538;BME280;18147;51.952;6.146;2022-12-07T00:46:32;101660.28;;;3.13;100.00
31538;BME280;18147;51.952;6.146;2022-12-07T00:48:58;101655.91;;;3.10;100.00
31538;BME280;18147;51.952;6.146;2022-12-07T00:51:24;101659.47;;;3.09;100.00
31538;BME280;18147;51.952;6.146;2022-12-07T00:53:50;101660.47;;;3.02;100.00
31538;BME280;18147;51.952;6.146;2022-12-07T00:56:19;101660.47;;;3.02;100.00
31538;BME280;18147;51.952;6.146;2022-12-07T00:58:59;101657.13;;;2.94;100.00
31538;BME280;18147;51.952;6.146;2022-12-07T01:01:28;101650.94;;;2.95;100.00
31538;BME280;18147;51.952;6.146;2022-12-07T01:03:54;101650.06;;;2.94;100.00
31538;BME280;18147;51.952;6.146;2022-12-07T01:06:21;101648.34;;;2.93;100.00
31538;BME280;18147;51.952;6.146;2022-12-07T01:08:47;101648.38;;;2.90;100.00
31538;BME280;18147;51.952;6.146;2022-12-07T01:11:19;101649.34;;;2.86;100.00
31538;BME280;18147;51.952;6.146;2022-12-07T01:13:45;101645.91;;;2.81;100.00
31538;BME280;18147;51.952;6.146;2022-12-07T01:16:13;101652.91;;;2.83;100.00
31538;BME280;18147;51.952;6.146;2022-12-07T01:18:40;101650.31;;;2.80;100.00
31538;BME280;18147;51.952;6.146;2022-12-07T01:21:11;101652.13;;;2.78;100.00
31538;BME280;18147;51.952;6.146;2022-12-07T01:23:37;101653.03;;;2.77;100.00
31538;BME280;18147;51.952;6.146;2022-12-07T01:26:07;101654.84;;;2.74;100.00
31538;BME280;18147;51.952;6.146;2022-12-07T01:28:33;101655.78;;;2.71;100.00
31538;BME280;18147;51.952;6.146;2022-12-07T01:31:08;101660.34;;;2.60;100.00
31538;BME280;18147;51.952;6.146;2022-12-07T01:33:36;101671.69;;;2.64;100.00
31538;BME280;18147;51.952;6.146;2022-12-07T01:36:08;101668.28;;;2.58;100.00
31538;BME280;18147;51.952;6.146;2022-12-07T01:38:37;101668.38;;;2.52;100.00
31538;BME280;18147;51.952;6.146;2022-12-07T01:41:03;101663.94;;;2.54;100.00
31538;BME280;18147;51.952;6.146;2022-12-07T01:43:30;101667.44;;;2.56;100.00
31538;BME280;18147;51.952;6.146;2022-12-07T01:45:56;101661.53;;;2.42;100.00
31538;BME280;18147;51.952;6.146;2022-12-07T01:51:02;101657.25;;;2.35;100.00
31538;BME280;18147;51.952;6.146;2022-12-07T01:53:30;101660.69;;;2.40;100.00
31538;BME280;18147;51.952;6.146;2022-12-07T01:55:58;101646.75;;;2.33;100.00
31538;BME280;18147;51.952;6.146;2022-12-07T01:58:24;101652.03;;;2.33;100.00
31538;BME280;18147;51.952;6.146;2022-12-07T02:00:50;101644.16;;;2.32;100.00
31538;BME280;18147;51.952;6.146;2022-12-07T02:03:27;101650.31;;;2.31;100.00
31538;BME280;18147;51.952;6.146;2022-12-07T02:05:55;101646.00;;;2.27;100.00
31538;BME280;18147;51.952;6.146;2022-12-07T02:08:22;101644.19;;;2.29;100.00
31538;BME280;18147;51.952;6.146;2022-12-07T02:10:47;101643.31;;;2.30;100.00
31538;BME280;18147;51.952;6.146;2022-12-07T02:13:16;101645.94;;;2.31;100.00
31538;BME280;18147;51.952;6.146;2022-12-07T02:18:38;101639.94;;;2.22;100.00
31538;BME280;18147;51.952;6.146;2022-12-07T02:26:50;101650.47;;;2.20;100.00
31538;BME280;18147;51.952;6.146;2022-12-07T02:29:55;101646.09;;;2.19;100.00
31538;BME280;18147;51.952;6.146;2022-12-07T02:35:02;101656.72;;;2.13;100.00
31538;BME280;18147;51.952;6.146;2022-12-07T02:37:39;101657.63;;;2.12;100.00
31538;BME280;18147;51.952;6.146;2022-12-07T02:40:29;101660.22;;;2.14;100.00
31538;BME280;18147;51.952;6.146;2022-12-07T02:43:24;101662.84;;;2.17;100.00
31538;BME280;18147;51.952;6.146;2022-12-07T02:45:52;101654.94;;;2.15;100.00
31538;BME280;18147;51.952;6.146;2022-12-07T02:48:19;101653.28;;;2.11;100.00
31538;BME280;18147;51.952;6.146;2022-12-07T02:50:52;101650.53;;;2.16;100.00
31538;BME280;18147;51.952;6.146;2022-12-07T02:53:39;101651.34;;;2.21;100.00
31538;BME280;18147;51.952;6.146;2022-12-07T02:59:15;101647.66;;;2.32;100.00
31538;BME280;18147;51.952;6.146;2022-12-07T03:02:12;101645.94;;;2.31;100.00
31538;BME280;18147;51.952;6.146;2022-12-07T03:10:22;101647.59;;;2.37;100.00
31538;BME280;18147;51.952;6.146;2022-12-07T03:18:32;101655.16;;;2.57;100.00
31538;BME280;18147;51.952;6.146;2022-12-07T03:21:04;101648.97;;;2.58;100.00
31538;BME280;18147;51.952;6.146;2022-12-07T03:23:32;101647.19;;;2.62;100.00
31538;BME280;18147;51.952;6.146;2022-12-07T03:26:01;101655.03;;;2.63;100.00
31538;BME280;18147;51.952;6.146;2022-12-07T03:28:33;101640.97;;;2.64;100.00
31538;BME280;18147;51.952;6.146;2022-12-07T03:31:05;101649.78;;;2.63;100.00
31538;BME280;18147;51.952;6.146;2022-12-07T03:33:40;101650.47;;;2.73;100.00
31538;BME280;18147;51.952;6.146;2022-12-07T03:36:44;101647.06;;;2.68;100.00
31538;BME280;18147;51.952;6.146;2022-12-07T03:39:25;101646.19;;;2.67;100.00
31538;BME280;18147;51.952;6.146;2022-12-07T03:41:54;101640.06;;;2.65;100.00
31538;BME280;18147;51.952;6.146;2022-12-07T03:44:20;101635.78;;;2.61;100.00
31538;BME280;18147;51.952;6.146;2022-12-07T03:46:57;101631.38;;;2.60;100.00
31538;BME280;18147;51.952;6.146;2022-12-07T03:49:41;101633.16;;;2.59;100.00
31538;BME280;18147;51.952;6.146;2022-12-07T03:52:47;101629.59;;;2.62;100.00
31538;BME280;18147;51.952;6.146;2022-12-07T03:55:16;101625.22;;;2.63;100.00
31538;BME280;18147;51.952;6.146;2022-12-07T03:57:45;101633.97;;;2.63;100.00
31538;BME280;18147;51.952;6.146;2022-12-07T04:00:13;101626.06;;;2.63;100.00
31538;BME280;18147;51.952;6.146;2022-12-07T04:02:39;101631.38;;;2.62;100.00
31538;BME280;18147;51.952;6.146;2022-12-07T04:05:08;101626.06;;;2.63;100.00
31538;BME280;18147;51.952;6.146;2022-12-07T04:07:34;101626.91;;;2.65;100.00
31538;BME280;18147;51.952;6.146;2022-12-07T04:09:59;101634.63;;;2.74;100.00
31538;BME280;18147;51.952;6.146;2022-12-07T04:12:25;101635.63;;;2.69;100.00
31538;BME280;18147;51.952;6.146;2022-12-07T04:14:50;101627.84;;;2.63;100.00
31538;BME280;18147;51.952;6.146;2022-12-07T04:17:16;101631.41;;;2.58;100.00
31538;BME280;18147;51.952;6.146;2022-12-07T04:19:41;101641.09;;;2.58;100.00
31538;BME280;18147;51.952;6.146;2022-12-07T04:22:07;101632.47;;;2.48;100.00
31538;BME280;18147;51.952;6.146;2022-12-07T04:24:33;101632.56;;;2.44;100.00
31538;BME280;18147;51.952;6.146;2022-12-07T04:26:58;101631.72;;;2.40;100.00
31538;BME280;18147;51.952;6.146;2022-12-07T04:29:24;101632.75;;;2.33;100.00
31538;BME280;18147;51.952;6.146;2022-12-07T04:31:50;101626.66;;;2.31;100.00
31538;BME280;18147;51.952;6.146;2022-12-07T04:34:19;101629.34;;;2.26;100.00
31538;BME280;18147;51.952;6.146;2022-12-07T04:36:46;101628.59;;;2.18;100.00
31538;BME280;18147;51.952;6.146;2022-12-07T04:39:27;101623.38;;;2.15;100.00
31538;BME280;18147;51.952;6.146;2022-12-07T04:41:53;101623.38;;;2.15;100.00
31538;BME280;18147;51.952;6.146;2022-12-07T04:44:20;101628.66;;;2.14;100.00
31538;BME280;18147;51.952;6.146;2022-12-07T04:46:46;101627.75;;;2.16;100.00
31538;BME280;18147;51.952;6.146;2022-12-07T04:49:13;101633.81;;;2.20;100.00
31538;BME280;18147;51.952;6.146;2022-12-07T04:51:39;101626.72;;;2.26;100.00
31538;BME280;18147;51.952;6.146;2022-12-07T04:54:05;101629.25;;;2.32;100.00
31538;BME280;18147;51.952;6.146;2022-12-07T04:56:30;101620.56;;;2.27;100.00
31538;BME280;18147;51.952;6.146;2022-12-07T04:58:56;101624.88;;;2.30;100.00
31538;BME280;18147;51.952;6.146;2022-12-07T05:01:23;101617.84;;;2.32;100.00
31538;BME280;18147;51.952;6.146;2022-12-07T05:03:48;101604.78;;;2.27;100.00
31538;BME280;18147;51.952;6.146;2022-12-07T05:06:14;101603.06;;;2.23;100.00
31538;BME280;18147;51.952;6.146;2022-12-07T05:08:41;101609.16;;;2.25;100.00
31538;BME280;18147;51.952;6.146;2022-12-07T05:11:08;101609.16;;;2.25;100.00
31538;BME280;18147;51.952;6.146;2022-12-07T05:13:35;101612.69;;;2.24;100.00
31538;BME280;18147;51.952;6.146;2022-12-07T05:16:00;101615.38;;;2.23;100.00
31538;BME280;18147;51.952;6.146;2022-12-07T05:18:26;101611.88;;;2.21;100.00
31538;BME280;18147;51.952;6.146;2022-12-07T05:20:52;101605.03;;;2.11;100.00
31538;BME280;18147;51.952;6.146;2022-12-07T05:23:17;101611.06;;;2.16;100.00
31538;BME280;18147;51.952;6.146;2022-12-07T05:25:43;101608.56;;;2.11;100.00
31538;BME280;18147;51.952;6.146;2022-12-07T05:28:08;101609.44;;;2.08;100.00
31538;BME280;18147;51.952;6.146;2022-12-07T05:30:34;101617.38;;;2.05;100.00
31538;BME280;18147;51.952;6.146;2022-12-07T05:32:59;101620.97;;;2.00;100.00
31538;BME280;18147;51.952;6.146;2022-12-07T05:35:25;101627.09;;;2.02;100.00
31538;BME280;18147;51.952;6.146;2022-12-07T05:37:51;101615.84;;;1.91;100.00
31538;BME280;18147;51.952;6.146;2022-12-07T05:40:16;101621.19;;;1.88;100.00
31538;BME280;18147;51.952;6.146;2022-12-07T05:42:42;101611.63;;;1.82;100.00
31538;BME280;18147;51.952;6.146;2022-12-07T05:45:09;101618.66;;;1.80;100.00
31538;BME280;18147;51.952;6.146;2022-12-07T05:47:34;101615.28;;;1.70;100.00
31538;BME280;18147;51.952;6.146;2022-12-07T05:50:00;101613.50;;;1.74;100.00
31538;BME280;18147;51.952;6.146;2022-12-07T05:52:25;101605.72;;;1.66;100.00
31538;BME280;18147;51.952;6.146;2022-12-07T05:54:51;101615.16;;;1.81;100.00
31538;BME280;18147;51.952;6.146;2022-12-07T05:57:17;101615.03;;;1.89;100.00
31538;BME280;18147;51.952;6.146;2022-12-07T05:59:42;101614.13;;;1.90;100.00
31538;BME280;18147;51.952;6.146;2022-12-07T06:02:11;101607.94;;;1.94;100.00
31538;BME280;18147;51.952;6.146;2022-12-07T06:04:39;101604.41;;;1.96;100.00
31538;BME280;18147;51.952;6.146;2022-12-07T06:07:06;101606.00;;;2.05;100.00
31538;BME280;18147;51.952;6.146;2022-12-07T06:09:32;101602.44;;;2.09;100.00
31538;BME280;18147;51.952;6.146;2022-12-07T06:11:58;101609.34;;;2.15;100.00
31538;BME280;18147;51.952;6.146;2022-12-07T06:14:43;101598.81;;;2.16;100.00
31538;BME280;18147;51.952;6.146;2022-12-07T06:17:09;101611.16;;;2.13;100.00
31538;BME280;18147;51.952;6.146;2022-12-07T06:19:35;101605.81;;;2.16;100.00
31538;BME280;18147;51.952;6.146;2022-12-07T06:22:01;101605.13;;;2.04;100.00
31538;BME280;18147;51.952;6.146;2022-12-07T06:24:28;101601.59;;;2.07;100.00
31538;BME280;18147;51.952;6.146;2022-12-07T06:26:53;101607.72;;;2.07;100.00
31538;BME280;18147;51.952;6.146;2022-12-07T06:29:19;101606.00;;;2.06;100.00
31538;BME280;18147;51.952;6.146;2022-12-07T06:31:44;101609.56;;;2.02;100.00
31538;BME280;18147;51.952;6.146;2022-12-07T06:34:13;101596.41;;;2.02;100.00
31538;BME280;18147;51.952;6.146;2022-12-07T06:36:39;101611.25;;;2.05;100.00
31538;BME280;18147;51.952;6.146;2022-12-07T06:39:05;101609.59;;;1.99;100.00
31538;BME280;18147;51.952;6.146;2022-12-07T06:41:31;101606.13;;;1.97;100.00
31538;BME280;18147;51.952;6.146;2022-12-07T06:43:57;101609.69;;;1.93;100.00
31538;BME280;18147;51.952;6.146;2022-12-07T06:46:23;101615.94;;;1.86;100.00
31538;BME280;18147;51.952;6.146;2022-12-07T06:48:48;101613.28;;;1.88;100.00
31538;BME280;18147;51.952;6.146;2022-12-07T06:51:14;101606.38;;;1.80;100.00
31538;BME280;18147;51.952;6.146;2022-12-07T06:53:39;101617.78;;;1.81;100.00
31538;BME280;18147;51.952;6.146;2022-12-07T06:56:05;101609.16;;;1.71;100.00
31538;BME280;18147;51.952;6.146;2022-12-07T06:58:30;101614.34;;;1.74;100.00
31538;BME280;18147;51.952;6.146;2022-12-07T07:00:56;101618.81;;;1.69;100.00
31538;BME280;18147;51.952;6.146;2022-12-07T07:03:22;101617.88;;;1.73;100.00
31538;BME280;18147;51.952;6.146;2022-12-07T07:05:48;101621.44;;;1.71;100.00
31538;BME280;18147;51.952;6.146;2022-12-07T07:08:14;101612.66;;;1.70;100.00
31538;BME280;18147;51.952;6.146;2022-12-07T07:10:40;101621.34;;;1.77;100.00
31538;BME280;18147;51.952;6.146;2022-12-07T07:13:06;101619.50;;;1.82;100.00
31538;BME280;18147;51.952;6.146;2022-12-07T07:15:32;101615.09;;;1.84;100.00
31538;BME280;18147;51.952;6.146;2022-12-07T07:17:57;101620.34;;;1.84;100.00
31538;BME280;18147;51.952;6.146;2022-12-07T07:20:23;101629.09;;;1.85;100.00
31538;BME280;18147;51.952;6.146;2022-12-07T07:22:49;101631.66;;;1.89;100.00
31538;BME280;18147;51.952;6.146;2022-12-07T07:25:14;101618.56;;;1.88;100.00
31538;BME280;18147;51.952;6.146;2022-12-07T07:27:40;101628.19;;;1.86;100.00
31538;BME280;18147;51.952;6.146;2022-12-07T07:30:06;101624.75;;;1.84;100.00
31538;BME280;18147;51.952;6.146;2022-12-07T07:32:32;101620.41;;;1.79;100.00
31538;BME280;18147;51.952;6.146;2022-12-07T07:35:00;101625.66;;;1.79;100.00
31538;BME280;18147;51.952;6.146;2022-12-07T07:37:25;101622.22;;;1.77;100.00
31538;BME280;18147;51.952;6.146;2022-12-07T07:39:51;101633.63;;;1.76;100.00
31538;BME280;18147;51.952;6.146;2022-12-07T07:42:16;101634.50;;;1.77;100.00
31538;BME280;18147;51.952;6.146;2022-12-07T07:44:43;101634.50;;;1.77;100.00
31538;BME280;18147;51.952;6.146;2022-12-07T07:47:11;101624.88;;;1.76;100.00
31538;BME280;18147;51.952;6.146;2022-12-07T07:49:37;101631.72;;;1.85;100.00
31538;BME280;18147;51.952;6.146;2022-12-07T07:52:02;101634.25;;;1.92;100.00
31538;BME280;18147;51.952;6.146;2022-12-07T07:54:28;101627.22;;;1.94;100.00
31538;BME280;18147;51.952;6.146;2022-12-07T07:56:53;101625.56;;;1.86;100.00
31538;BME280;18147;51.952;6.146;2022-12-07T07:59:19;101629.16;;;1.81;100.00
31538;BME280;18147;51.952;6.146;2022-12-07T08:01:44;101628.25;;;1.84;100.00
31538;BME280;18147;51.952;6.146;2022-12-07T08:04:10;101627.31;;;1.88;100.00
31538;BME280;18147;51.952;6.146;2022-12-07T08:06:36;101632.56;;;1.88;100.00
31538;BME280;18147;51.952;6.146;2022-12-07T08:09:02;101633.47;;;1.87;100.00
31538;BME280;18147;51.952;6.146;2022-12-07T08:11:28;101637.84;;;1.85;100.00
31538;BME280;18147;51.952;6.146;2022-12-07T08:13:54;101644.75;;;1.94;100.00
31538;BME280;18147;51.952;6.146;2022-12-07T08:16:19;101643.84;;;1.96;100.00
31538;BME280;18147;51.952;6.146;2022-12-07T08:18:44;101640.19;;;2.05;100.00
31538;BME280;18147;51.952;6.146;2022-12-07T08:21:14;101635.78;;;2.07;100.00
31538;BME280;18147;51.952;6.146;2022-12-07T08:23:43;101652.31;;;2.17;100.00
31538;BME280;18147;51.952;6.146;2022-12-07T08:26:11;101651.13;;;2.36;100.00
31538;BME280;18147;51.952;6.146;2022-12-07T08:28:43;101643.69;;;2.59;100.00
31538;BME280;18147;51.952;6.146;2022-12-07T08:31:12;101645.38;;;2.64;100.00
31538;BME280;18147;51.952;6.146;2022-12-07T08:33:39;101646.06;;;2.73;100.00
31538;BME280;18147;51.952;6.146;2022-12-07T08:36:07;101658.13;;;2.85;100.00
31538;BME280;18147;51.952;6.146;2022-12-07T08:38:37;101662.59;;;2.83;100.00
31538;BME280;18147;51.952;6.146;2022-12-07T08:41:04;101659.94;;;2.83;100.00
31538;BME280;18147;51.952;6.146;2022-12-07T08:43:29;101654.66;;;2.84;100.00
31538;BME280;18147;51.952;6.146;2022-12-07T08:48:31;101644.88;;;2.90;100.00
31538;BME280;18147;51.952;6.146;2022-12-07T08:51:01;101646.66;;;2.89;100.00
31538;BME280;18147;51.952;6.146;2022-12-07T08:53:27;101640.34;;;2.98;100.00
31538;BME280;18147;51.952;6.146;2022-12-07T08:55:53;101650.00;;;2.99;100.00
31538;BME280;18147;51.952;6.146;2022-12-07T08:58:19;101652.28;;;3.16;100.00
31538;BME280;18147;51.952;6.146;2022-12-07T09:00:44;101651.72;;;3.00;100.00
31538;BME280;18147;51.952;6.146;2022-12-07T09:03:10;101648.13;;;3.04;100.00
31538;BME280;18147;51.952;6.146;2022-12-07T09:05:35;101654.44;;;2.97;100.00
31538;BME280;18147;51.952;6.146;2022-12-07T09:08:01;101642.34;;;2.87;100.00
31538;BME280;18147;51.952;6.146;2022-12-07T09:10:30;101647.53;;;2.90;100.00
31538;BME280;18147;51.952;6.146;2022-12-07T09:12:56;101647.53;;;2.90;100.00
31538;BME280;18147;51.952;6.146;2022-12-07T09:15:28;101642.16;;;2.94;100.00
31538;BME280;18147;51.952;6.146;2022-12-07T09:17:54;101644.56;;;3.08;100.00
31538;BME280;18147;51.952;6.146;2022-12-07T09:20:20;101645.19;;;3.19;100.00
31538;BME280;18147;51.952;6.146;2022-12-07T09:22:47;101650.84;;;3.44;100.00
31538;BME280;18147;51.952;6.146;2022-12-07T09:25:12;101648.84;;;3.55;100.00
31538;BME280;18147;51.952;6.146;2022-12-07T09:27:38;101640.50;;;3.75;100.00
31538;BME280;18147;51.952;6.146;2022-12-07T09:30:04;101643.06;;;3.78;100.00
31538;BME280;18147;51.952;6.146;2022-12-07T09:32:30;101645.16;;;3.64;100.00
31538;BME280;18147;51.952;6.146;2022-12-07T09:34:55;101639.91;;;3.62;100.00
31538;BME280;18147;51.952;6.146;2022-12-07T09:37:21;101641.50;;;3.70;100.00
31538;BME280;18147;51.952;6.146;2022-12-07T09:39:46;101647.19;;;3.90;100.00
31538;BME280;18147;51.952;6.146;2022-12-07T09:44:50;101634.41;;;4.12;100.00
31538;BME280;18147;51.952;6.146;2022-12-07T09:47:15;101639.03;;;4.36;100.00
31538;BME280;18147;51.952;6.146;2022-12-07T09:49:41;101630.25;;;4.37;100.00
31538;BME280;18147;51.952;6.146;2022-12-07T09:54:42;101629.06;;;4.49;100.00
31538;BME280;18147;51.952;6.146;2022-12-07T09:57:11;101625.44;;;4.52;100.00
31538;BME280;18147;51.952;6.146;2022-12-07T09:59:38;101622.03;;;4.48;100.00
31538;BME280;18147;51.952;6.146;2022-12-07T10:02:33;101623.47;;;4.27;100.00
31538;BME280;18147;51.952;6.146;2022-12-07T10:04:59;101617.38;;;4.24;100.00
31538;BME280;18147;51.952;6.146;2022-12-07T10:07:25;101620.78;;;4.29;100.00
31538;BME280;18147;51.952;6.146;2022-12-07T10:09:50;101626.00;;;4.30;100.00
31538;BME280;18147;51.952;6.146;2022-12-07T10:12:16;101613.13;;;4.18;100.00
31538;BME280;18147;51.952;6.146;2022-12-07T10:15:02;101608.88;;;4.12;100.00
31538;BME280;18147;51.952;6.146;2022-12-07T10:23:02;101609.06;;;4.03;100.00
31538;BME280;18147;51.952;6.146;2022-12-07T10:25:33;101608.00;;;4.12;100.00
31538;BME280;18147;51.952;6.146;2022-12-07T10:28:02;101602.78;;;4.09;100.00
31538;BME280;18147;51.952;6.146;2022-12-07T10:30:28;101604.34;;;4.18;100.00
31538;BME280;18147;51.952;6.146;2022-12-07T10:32:53;101605.22;;;4.16;100.00
31538;BME280;18147;51.952;6.146;2022-12-07T10:37:48;101598.84;;;4.25;100.00
31538;BME280;18147;51.952;6.146;2022-12-07T10:40:29;101593.16;;;4.42;100.00
31538;BME280;18147;51.952;6.146;2022-12-07T10:43:05;101590.31;;;4.50;100.00
31538;BME280;18147;51.952;6.146;2022-12-07T10:45:32;101588.47;;;4.53;100.00
31538;BME280;18147;51.952;6.146;2022-12-07T10:48:14;101599.47;;;4.69;100.00
31538;BME280;18147;51.952;6.146;2022-12-07T11:04:43;101569.84;;;5.20;100.00
31538;BME280;18147;51.952;6.146;2022-12-07T11:15:17;101553.91;;;5.53;100.00
31538;BME280;18147;51.952;6.146;2022-12-07T11:17:58;101541.28;;;5.61;100.00
31538;BME280;18147;51.952;6.146;2022-12-07T11:23:34;101545.66;;;5.62;100.00
31538;BME280;18147;51.952;6.146;2022-12-07T11:31:35;101542.94;;;5.35;100.00
31538;BME280;18147;51.952;6.146;2022-12-07T11:36:52;101534.41;;;5.55;100.00
31538;BME280;18147;51.952;6.146;2022-12-07T11:39:34;101541.34;;;5.59;100.00
31538;BME280;18147;51.952;6.146;2022-12-07T11:42:15;101540.19;;;5.68;100.00
31538;BME280;18147;51.952;6.146;2022-12-07T11:47:28;101535.97;;;5.89;100.00
31538;BME280;18147;51.952;6.146;2022-12-07T11:52:44;101526.19;;;5.91;100.00
31538;BME280;18147;51.952;6.146;2022-12-07T11:57:57;101519.19;;;5.62;100.00
31538;BME280;18147;51.952;6.146;2022-12-07T12:00:23;101524.31;;;5.68;100.00
31538;BME280;18147;51.952;6.146;2022-12-07T12:03:02;101514.47;;;5.71;100.00
31538;BME280;18147;51.952;6.146;2022-12-07T12:05:31;101515.41;;;5.70;100.00
31538;BME280;18147;51.952;6.146;2022-12-07T12:08:11;101513.97;;;5.87;100.00
31538;BME280;18147;51.952;6.146;2022-12-07T12:16:27;101507.34;;;6.27;100.00
31538;BME280;18147;51.952;6.146;2022-12-07T12:21:30;101499.91;;;6.63;100.00
31538;BME280;18147;51.952;6.146;2022-12-07T12:24:11;101489.56;;;6.55;100.00
31538;BME280;18147;51.952;6.146;2022-12-07T12:26:38;101493.41;;;6.46;100.00
31538;BME280;18147;51.952;6.146;2022-12-07T12:29:19;101491.09;;;6.37;100.00
31538;BME280;18147;51.952;6.146;2022-12-07T12:32:11;101490.56;;;6.28;100.00
31538;BME280;18147;51.952;6.146;2022-12-07T12:34:40;101490.66;;;6.25;100.00
31538;BME280;18147;51.952;6.146;2022-12-07T12:42:56;101480.88;;;6.27;100.00
31538;BME280;18147;51.952;6.146;2022-12-07T12:45:30;101481.56;;;6.07;100.00
31538;BME280;18147;51.952;6.146;2022-12-07T12:48:00;101481.06;;;5.95;100.00
31538;BME280;18147;51.952;6.146;2022-12-07T12:52:55;101483.19;;;5.84;100.00
31538;BME280;18147;51.952;6.146;2022-12-07T12:55:43;101478.06;;;5.80;100.00
31538;BME280;18147;51.952;6.146;2022-12-07T13:00:45;101469.88;;;5.87;100.00
31538;BME280;18147;51.952;6.146;2022-12-07T13:03:29;101468.03;;;5.89;100.00
31538;BME280;18147;51.952;6.146;2022-12-07T13:06:17;101478.38;;;5.97;100.00
31538;BME280;18147;51.952;6.146;2022-12-07T13:08:43;101460.91;;;5.91;100.00
31538;BME280;18147;51.952;6.146;2022-12-07T13:11:24;101454.16;;;5.81;100.00
31538;BME280;18147;51.952;6.146;2022-12-07T13:13:50;101453.47;;;5.76;100.00
31538;BME280;18147;51.952;6.146;2022-12-07T13:18:42;101453.63;;;5.71;100.00
31538;BME280;18147;51.952;6.146;2022-12-07T13:23:51;101438.56;;;5.74;100.00
31538;BME280;18147;51.952;6.146;2022-12-07T13:31:36;101437.06;;;5.93;100.00
31538;BME280;18147;51.952;6.146;2022-12-07T13:34:05;101430.25;;;5.84;100.00
31538;BME280;18147;51.952;6.146;2022-12-07T13:36:36;101426.59;;;5.88;100.00
31538;BME280;18147;51.952;6.146;2022-12-07T13:39:19;101420.78;;;5.77;100.00
31538;BME280;18147;51.952;6.146;2022-12-07T13:41:48;101420.75;;;5.79;100.00
31538;BME280;18147;51.952;6.146;2022-12-07T13:44:19;101413.22;;;5.66;100.00
31538;BME280;18147;51.952;6.146;2022-12-07T13:49:26;101409.94;;;5.60;100.00
31538;BME280;18147;51.952;6.146;2022-12-07T13:51:52;101409.84;;;5.63;100.00
31538;BME280;18147;51.952;6.146;2022-12-07T13:54:18;101408.06;;;5.63;100.00
31538;BME280;18147;51.952;6.146;2022-12-07T13:56:48;101410.91;;;5.57;100.00
31538;BME280;18147;51.952;6.146;2022-12-07T13:59:21;101411.41;;;5.68;100.00
31538;BME280;18147;51.952;6.146;2022-12-07T14:01:48;101406.13;;;5.67;100.00
31538;BME280;18147;51.952;6.146;2022-12-07T14:06:55;101393.84;;;5.91;100.00
31538;BME280;18147;51.952;6.146;2022-12-07T14:09:23;101400.13;;;5.88;100.00
31538;BME280;18147;51.952;6.146;2022-12-07T14:11:50;101392.81;;;5.96;100.00
31538;BME280;18147;51.952;6.146;2022-12-07T14:14:20;101393.13;;;5.87;100.00
31538;BME280;18147;51.952;6.146;2022-12-07T14:16:59;101394.00;;;5.86;100.00
31538;BME280;18147;51.952;6.146;2022-12-07T14:19:48;101389.75;;;5.82;100.00
31538;BME280;18147;51.952;6.146;2022-12-07T14:24:58;101408.84;;;5.65;100.00
31538;BME280;18147;51.952;6.146;2022-12-07T14:27:24;101399.56;;;5.27;100.00
31538;BME280;18147;51.952;6.146;2022-12-07T14:29:56;101402.28;;;4.96;100.00
31538;BME280;18147;51.952;6.146;2022-12-07T14:32:24;101398.63;;;4.72;100.00
31538;BME280;18147;51.952;6.146;2022-12-07T14:35:14;101404.84;;;4.09;100.00
31538;BME280;18147;51.952;6.146;2022-12-07T14:37:42;101406.84;;;3.68;100.00
31538;BME280;18147;51.952;6.146;2022-12-07T14:40:16;101423.75;;;3.59;100.00
31538;BME280;18147;51.952;6.146;2022-12-07T14:42:42;101424.59;;;3.60;100.00
31538;BME280;18147;51.952;6.146;2022-12-07T14:45:16;101416.47;;;3.69;100.00
31538;BME280;18147;51.952;6.146;2022-12-07T14:47:43;101412.91;;;3.72;100.00
31538;BME280;18147;51.952;6.146;2022-12-07T14:50:13;101407.47;;;3.78;100.00
31538;BME280;18147;51.952;6.146;2022-12-07T14:52:39;101408.22;;;3.81;100.00
31538;BME280;18147;51.952;6.146;2022-12-07T14:55:08;101396.69;;;3.85;100.00
31538;BME280;18147;51.952;6.146;2022-12-07T14:57:37;101403.75;;;3.85;100.00
31538;BME280;18147;51.952;6.146;2022-12-07T15:00:03;101395.66;;;3.91;100.00
31538;BME280;18147;51.952;6.146;2022-12-07T15:02:29;101396.56;;;3.92;100.00